createdAt,value
2019-04-21T00:01:59.705Z,19.83
2019-04-21T00:05:24.975Z,18.57
2019-04-21T00:11:34.283Z,24.23
2019-04-21T00:14:31.564Z,19.40
2019-04-21T00:17:28.389Z,18.90
2019-04-21T00:20:40.913Z,21.57
2019-04-21T00:23:56.178Z,17.97
2019-04-21T00:27:05.549Z,22.00
2019-04-21T00:30:15.822Z,21.03
2019-04-21T00:33:06.931Z,19.97
2019-04-21T00:36:11.463Z,21.67
2019-04-21T00:39:45.046Z,21.70
2019-04-21T00:42:38.623Z,19.47
2019-04-21T00:45:39.039Z,16.50
2019-04-21T00:48:55.041Z,20.83
2019-04-21T00:52:36.675Z,22.27
2019-04-21T00:55:44.537Z,19.03
2019-04-21T00:58:47.750Z,23.57
2019-04-21T01:01:49.330Z,17.53
2019-04-21T01:05:01.705Z,18.53
2019-04-21T01:08:04.931Z,20.20
2019-04-21T01:11:02.186Z,22.67
2019-04-21T01:14:21.976Z,27.20
2019-04-21T01:17:21.710Z,30.63
2019-04-21T01:20:16.538Z,26.73
2019-04-21T01:23:12.755Z,23.23
2019-04-21T01:26:29.595Z,24.67
2019-04-21T01:29:46.954Z,21.70
2019-04-21T01:32:51.241Z,21.23
2019-04-21T01:35:54.987Z,19.00
2019-04-21T01:39:03.433Z,29.97
2019-04-21T01:42:03.807Z,18.43
2019-04-21T01:45:11.374Z,22.47
2019-04-21T01:48:12.966Z,20.63
2019-04-21T01:51:23.557Z,18.03
2019-04-21T01:54:51.998Z,18.27
2019-04-21T01:58:00.436Z,21.97
2019-04-21T02:01:09.977Z,15.87
2019-04-21T02:04:24.103Z,19.77
2019-04-21T02:07:27.376Z,20.07
2019-04-21T02:10:40.395Z,17.90
2019-04-21T02:13:51.261Z,17.33
2019-04-21T02:16:49.684Z,19.83
2019-04-21T02:19:48.042Z,16.77
2019-04-21T02:23:10.319Z,20.10
2019-04-21T02:26:03.326Z,19.10
2019-04-21T02:29:08.642Z,23.53
2019-04-21T02:35:40.220Z,17.47
2019-04-21T02:38:36.290Z,18.70
2019-04-21T02:41:43.759Z,17.37
2019-04-21T02:50:49.970Z,19.10
2019-04-21T02:57:08.574Z,17.90
2019-04-21T03:03:29.797Z,18.07
2019-04-21T03:09:53.239Z,16.83
2019-04-21T03:13:11.567Z,24.93
2019-04-21T03:16:20.949Z,20.33
2019-04-21T03:19:20.390Z,19.03
2019-04-21T03:22:22.612Z,19.67
2019-04-21T03:28:37.446Z,19.63
2019-04-21T03:32:06.406Z,19.23
2019-04-21T03:35:15.276Z,19.37
2019-04-21T03:37:52.892Z,20.07
2019-04-21T03:40:57.253Z,17.63
2019-04-21T03:50:11.455Z,22.63
2019-04-21T03:53:18.663Z,17.17
2019-04-21T03:56:44.396Z,20.47
2019-04-21T03:59:33.253Z,16.63
2019-04-21T04:03:44.233Z,17.87
2019-04-21T04:12:36.553Z,16.37
2019-04-21T04:15:49.088Z,18.23
2019-04-21T04:18:57.911Z,17.87
2019-04-21T04:28:13.756Z,15.43
2019-04-21T04:31:18.066Z,16.33
2019-04-21T04:37:38.362Z,16.00
2019-04-21T04:40:30.976Z,17.27
2019-04-21T04:43:35.501Z,19.07
2019-04-21T04:52:56.731Z,17.17
2019-04-21T04:59:26.077Z,18.53
2019-04-21T05:05:19.539Z,17.37
2019-04-21T05:08:34.470Z,16.90
2019-04-21T05:11:40.315Z,17.33
2019-04-21T05:14:33.768Z,17.00
2019-04-21T05:17:46.344Z,18.50
2019-04-21T05:20:52.244Z,17.70
2019-04-21T05:23:43.050Z,18.70
2019-04-21T05:26:46.186Z,16.87
2019-04-21T05:29:58.656Z,16.00
2019-04-21T05:33:13.556Z,16.93
2019-04-21T05:36:24.386Z,20.70
2019-04-21T05:39:33.698Z,14.60
2019-04-21T05:42:44.190Z,16.70
2019-04-21T05:45:53.303Z,18.57
2019-04-21T05:48:59.749Z,16.73
2019-04-21T05:52:03.693Z,17.20
2019-04-21T05:55:16.723Z,18.20
2019-04-21T05:58:40.619Z,14.53
2019-04-21T06:01:47.029Z,15.40
2019-04-21T06:05:10.470Z,17.90
2019-04-21T06:08:00.465Z,16.93
2019-04-21T06:11:07.262Z,19.63
2019-04-21T06:14:17.002Z,18.70
2019-04-21T06:20:21.300Z,16.63
2019-04-21T06:23:30.065Z,14.50
2019-04-21T06:26:50.528Z,14.77
2019-04-21T06:29:36.171Z,12.30
2019-04-21T06:33:15.423Z,11.67
2019-04-21T06:40:01.835Z,9.00
2019-04-21T06:42:50.387Z,7.37
2019-04-21T06:46:03.694Z,6.83
2019-04-21T06:49:02.829Z,5.17
2019-04-21T06:52:20.569Z,6.30
2019-04-21T06:55:16.968Z,7.17
2019-04-21T06:58:18.163Z,6.53
2019-04-21T07:01:30.885Z,8.30
2019-04-21T07:04:58.650Z,7.03
2019-04-21T07:07:43.627Z,5.90
2019-04-21T07:10:43.504Z,7.93
2019-04-21T07:14:01.688Z,6.60
2019-04-21T07:17:06.558Z,6.07
2019-04-21T07:20:07.307Z,4.67
2019-04-21T07:23:20.416Z,6.03
2019-04-21T07:26:19.196Z,5.53
2019-04-21T07:29:32.575Z,6.57
2019-04-21T07:32:49.798Z,4.90
2019-04-21T07:35:50.909Z,7.43
2019-04-21T07:38:39.959Z,6.03
2019-04-21T07:41:45.349Z,5.60
2019-04-21T07:44:49.449Z,4.77
2019-04-21T07:48:00.950Z,4.87
2019-04-21T07:51:37.772Z,4.27
2019-04-21T07:54:57.415Z,3.70
2019-04-21T07:58:03.011Z,4.37
2019-04-21T08:01:46.540Z,3.83
2019-04-21T08:07:55.894Z,5.10
2019-04-21T08:10:56.743Z,4.63
2019-04-21T08:14:02.092Z,4.80
2019-04-21T08:17:11.017Z,5.00
2019-04-21T08:20:15.616Z,4.80
2019-04-21T08:23:27.430Z,9.77
2019-04-21T08:26:34.522Z,4.90
2019-04-21T08:32:55.521Z,5.17
2019-04-21T08:36:03.058Z,5.23
2019-04-21T08:38:54.521Z,5.47
2019-04-21T08:41:59.016Z,3.67
2019-04-21T08:45:03.874Z,4.57
2019-04-21T08:48:04.151Z,6.03
2019-04-21T08:54:21.987Z,6.43
2019-04-21T08:57:50.861Z,5.33
2019-04-21T09:01:01.135Z,4.37
2019-04-21T09:04:07.557Z,4.30
2019-04-21T09:07:16.332Z,4.80
2019-04-21T09:10:17.275Z,4.03
2019-04-21T09:13:24.883Z,4.73
2019-04-21T09:16:27.759Z,6.07
2019-04-21T09:19:45.211Z,3.93
2019-04-21T09:22:47.807Z,7.40
2019-04-21T09:25:57.571Z,11.30
2019-04-21T09:28:52.231Z,16.80
2019-04-21T09:31:50.306Z,6.57
2019-04-21T09:34:56.070Z,10.47
2019-04-21T09:38:16.030Z,6.80
2019-04-21T09:41:14.263Z,6.60
2019-04-21T09:44:25.453Z,10.07
2019-04-21T09:47:33.607Z,4.60
2019-04-21T09:50:31.789Z,8.37
2019-04-21T09:53:40.169Z,4.63
2019-04-21T09:56:52.402Z,5.47
2019-04-21T09:59:57.575Z,5.53
2019-04-21T10:03:02.168Z,3.30
2019-04-21T10:06:04.333Z,3.87
2019-04-21T10:09:14.442Z,6.43
2019-04-21T10:12:16.684Z,6.60
2019-04-21T10:15:25.011Z,4.67
2019-04-21T10:18:31.908Z,10.30
2019-04-21T10:21:38.076Z,4.43
2019-04-21T10:24:44.598Z,3.70
2019-04-21T10:27:50.127Z,3.40
2019-04-21T10:30:58.556Z,4.67
2019-04-21T10:34:05.273Z,5.17
2019-04-21T10:37:13.303Z,3.87
2019-04-21T10:40:21.282Z,4.33
2019-04-21T10:43:29.502Z,3.93
2019-04-21T10:46:36.879Z,5.27
2019-04-21T10:49:44.627Z,6.17
2019-04-21T10:53:00.889Z,4.97
2019-04-21T10:56:15.696Z,6.77
2019-04-21T10:59:16.253Z,5.07
2019-04-21T11:02:28.832Z,6.93
2019-04-21T11:05:33.025Z,5.30
2019-04-21T11:08:43.998Z,5.87
2019-04-21T11:11:48.270Z,5.47
2019-04-21T11:14:53.558Z,4.97
2019-04-21T11:18:00.007Z,5.43
2019-04-21T11:21:04.983Z,6.83
2019-04-21T11:24:10.396Z,6.77
2019-04-21T11:27:15.007Z,10.83
2019-04-21T11:30:19.998Z,5.03
2019-04-21T11:33:24.974Z,7.00
2019-04-21T11:36:29.243Z,5.87
2019-04-21T11:39:42.219Z,8.00
2019-04-21T11:42:40.067Z,6.67
2019-04-21T11:45:44.425Z,8.43
2019-04-21T11:48:48.726Z,9.17
2019-04-21T11:51:53.256Z,5.20
2019-04-21T11:54:58.516Z,5.83
2019-04-21T11:58:03.556Z,5.37
2019-04-21T12:01:07.835Z,5.63
2019-04-21T12:04:12.018Z,6.07
2019-04-21T12:07:17.516Z,9.23
2019-04-21T12:10:21.768Z,5.83
2019-04-21T12:13:26.088Z,6.07
2019-04-21T12:16:30.842Z,6.93
2019-04-21T12:19:36.737Z,6.70
2019-04-21T12:22:41.249Z,7.97
2019-04-21T12:25:47.770Z,9.47
2019-04-21T12:28:53.552Z,7.60
2019-04-21T12:32:26.487Z,7.07
2019-04-21T12:35:30.957Z,10.20
2019-04-21T12:38:41.458Z,8.57
2019-04-21T12:41:40.835Z,10.13
2019-04-21T12:44:45.446Z,11.40
2019-04-21T12:47:52.416Z,7.47
2019-04-21T12:50:59.774Z,14.20
2019-04-21T12:54:03.988Z,11.00
2019-04-21T12:57:09.655Z,9.60
2019-04-21T13:00:16.675Z,10.10
2019-04-21T13:03:23.101Z,8.73
2019-04-21T13:06:27.775Z,13.50
2019-04-21T13:09:33.822Z,11.27
2019-04-21T13:12:38.865Z,9.47
2019-04-21T13:15:43.632Z,10.77
2019-04-21T13:18:49.366Z,9.47
2019-04-21T13:21:54.039Z,8.63
2019-04-21T13:25:00.428Z,10.70
2019-04-21T13:28:05.016Z,10.03
2019-04-21T13:31:09.599Z,11.87
2019-04-21T13:34:14.035Z,9.57
2019-04-21T13:37:19.542Z,9.70
2019-04-21T13:40:56.925Z,11.10
2019-04-21T13:43:50.759Z,9.57
2019-04-21T13:46:59.023Z,15.03
2019-04-21T13:50:07.145Z,11.43
2019-04-21T13:53:16.723Z,13.77
2019-04-21T13:56:28.903Z,12.37
2019-04-21T13:59:38.436Z,10.27
2019-04-21T14:02:44.800Z,13.43
2019-04-21T14:05:54.032Z,10.80
2019-04-21T14:09:03.351Z,23.13
2019-04-21T14:12:13.755Z,10.30
2019-04-21T14:15:22.156Z,16.67
2019-04-21T14:18:26.858Z,10.77
2019-04-21T14:21:37.122Z,13.03
2019-04-21T14:24:43.863Z,15.27
2019-04-21T14:27:52.037Z,14.10
2019-04-21T14:30:59.659Z,12.73
2019-04-21T14:34:04.204Z,15.80
2019-04-21T14:37:08.811Z,12.43
2019-04-21T14:40:20.700Z,16.53
2019-04-21T14:43:21.691Z,13.00
2019-04-21T14:46:31.288Z,12.83
2019-04-21T14:49:57.515Z,12.30
2019-04-21T14:53:20.337Z,11.30
2019-04-21T14:56:25.052Z,11.17
2019-04-21T14:59:29.076Z,12.70
2019-04-21T15:02:33.910Z,12.20
2019-04-21T15:05:37.804Z,12.97
2019-04-21T15:08:42.945Z,11.47
2019-04-21T15:11:47.697Z,12.37
2019-04-21T15:14:51.919Z,12.30
2019-04-21T15:17:55.937Z,19.03
2019-04-21T15:21:01.375Z,11.93
2019-04-21T15:24:06.540Z,78.63
2019-04-21T15:27:10.611Z,12.67
2019-04-21T15:30:14.804Z,14.37
2019-04-21T15:33:20.220Z,12.73
2019-04-21T15:36:25.033Z,11.03
2019-04-21T15:39:29.838Z,12.63
2019-04-21T15:42:34.633Z,10.73
2019-04-21T15:45:39.046Z,12.33
2019-04-21T15:48:44.661Z,10.17
2019-04-21T15:51:49.575Z,11.23
2019-04-21T15:54:57.011Z,9.70
2019-04-21T15:58:10.252Z,11.87
2019-04-21T16:01:25.737Z,10.67
2019-04-21T16:04:30.677Z,10.33
2019-04-21T16:07:36.082Z,10.03
2019-04-21T16:10:47.109Z,11.80
2019-04-21T16:13:45.965Z,11.70
2019-04-21T16:16:49.919Z,10.37
2019-04-21T16:19:54.274Z,12.13
2019-04-21T16:22:58.245Z,10.37
2019-04-21T16:26:02.576Z,9.10
2019-04-21T16:29:07.085Z,8.43
2019-04-21T16:32:14.132Z,9.20
2019-04-21T16:35:18.659Z,8.77
2019-04-21T16:38:23.671Z,7.23
2019-04-21T16:41:28.657Z,10.40
2019-04-21T16:44:32.714Z,8.60
2019-04-21T16:47:37.920Z,9.87
2019-04-21T16:50:42.051Z,8.53
2019-04-21T16:53:53.467Z,11.40
2019-04-21T16:57:10.053Z,8.20
2019-04-21T17:00:30.205Z,7.77
2019-04-21T17:03:26.488Z,8.00
2019-04-21T17:06:31.177Z,7.33
2019-04-21T17:09:35.131Z,7.97
2019-04-21T17:12:41.830Z,11.20
2019-04-21T17:15:59.736Z,8.23
2019-04-21T17:19:01.883Z,7.60
2019-04-21T17:22:01.740Z,8.33
2019-04-21T17:25:08.582Z,8.47
2019-04-21T17:28:12.731Z,7.97
2019-04-21T17:31:18.095Z,8.53
2019-04-21T17:34:26.112Z,8.07
2019-04-21T17:37:29.187Z,7.27
2019-04-21T17:40:34.274Z,9.93
2019-04-21T17:43:39.553Z,10.93
2019-04-21T17:46:53.637Z,9.13
2019-04-21T17:50:06.010Z,7.53
2019-04-21T17:53:14.495Z,7.67
2019-04-21T17:56:46.254Z,10.77
2019-04-21T17:59:58.934Z,11.03
2019-04-21T18:02:47.917Z,17.07
2019-04-21T18:05:50.353Z,15.13
2019-04-21T18:09:04.383Z,12.43
2019-04-21T18:12:05.034Z,9.20
2019-04-21T18:15:02.029Z,9.30
2019-04-21T18:17:58.739Z,8.37
2019-04-21T18:21:09.185Z,11.80
2019-04-21T18:24:19.587Z,11.33
2019-04-21T18:27:19.701Z,9.07
2019-04-21T18:31:00.529Z,11.97
2019-04-21T18:34:25.660Z,10.73
2019-04-21T18:37:50.826Z,12.67
2019-04-21T18:40:54.389Z,14.83
2019-04-21T18:44:28.745Z,13.53
2019-04-21T18:47:31.918Z,11.67
2019-04-21T18:50:55.171Z,12.17
2019-04-21T18:54:17.714Z,15.27
2019-04-21T18:57:07.888Z,12.13
2019-04-21T19:00:15.293Z,13.50
2019-04-21T19:03:15.585Z,9.83
2019-04-21T19:06:32.340Z,8.60
2019-04-21T19:10:07.290Z,9.50
2019-04-21T19:16:17.219Z,9.60
2019-04-21T19:19:23.727Z,11.30
2019-04-21T19:22:09.088Z,12.73
2019-04-21T19:25:26.913Z,13.47
2019-04-21T19:28:19.558Z,9.23
2019-04-21T19:31:26.167Z,11.40
2019-04-21T19:34:21.112Z,12.93
2019-04-21T19:37:22.505Z,12.53
2019-04-21T19:40:40.767Z,12.37
2019-04-21T19:43:45.925Z,15.07
2019-04-21T19:46:55.449Z,11.23
2019-04-21T19:50:01.855Z,13.27
2019-04-21T19:52:57.754Z,13.63
2019-04-21T19:55:54.137Z,12.20
2019-04-21T19:58:59.046Z,13.17
2019-04-21T20:02:04.491Z,10.80
2019-04-21T20:05:13.584Z,9.90
2019-04-21T20:08:30.946Z,14.43
2019-04-21T20:11:38.232Z,15.43
2019-04-21T20:14:57.640Z,12.13
2019-04-21T20:17:47.782Z,10.90
2019-04-21T20:20:40.823Z,15.53
2019-04-21T20:23:46.255Z,17.03
2019-04-21T20:27:01.336Z,15.23
2019-04-21T20:30:17.458Z,14.57
2019-04-21T20:33:41.302Z,14.20
2019-04-21T20:36:31.381Z,13.40
2019-04-21T20:39:17.603Z,12.57
2019-04-21T20:42:28.049Z,13.80
2019-04-21T20:46:01.083Z,12.17
2019-04-21T20:48:43.886Z,12.80
2019-04-21T20:51:54.386Z,12.40
2019-04-21T20:54:56.393Z,11.50
2019-04-21T20:57:58.012Z,13.97
2019-04-21T21:01:25.750Z,13.20
2019-04-21T21:04:12.077Z,11.57
2019-04-21T21:07:36.706Z,13.23
2019-04-21T21:10:31.540Z,13.93
2019-04-21T21:13:37.414Z,10.70
2019-04-21T21:19:45.725Z,12.07
2019-04-21T21:22:48.074Z,12.77
2019-04-21T21:25:54.501Z,14.57
2019-04-21T21:28:54.798Z,11.07
2019-04-21T21:32:16.589Z,11.07
2019-04-21T21:35:13.495Z,10.93
2019-04-21T21:38:24.018Z,11.13
2019-04-21T21:41:17.696Z,14.70
2019-04-21T21:44:17.850Z,11.27
2019-04-21T21:47:32.136Z,13.10
2019-04-21T21:50:31.560Z,10.80
2019-04-21T21:53:32.602Z,12.80
2019-04-21T21:56:34.647Z,8.83
2019-04-21T21:59:40.402Z,11.23
2019-04-21T22:02:51.179Z,10.23
2019-04-21T22:05:58.249Z,12.70
2019-04-21T22:08:56.577Z,9.30
2019-04-21T22:12:04.765Z,8.90
2019-04-21T22:15:13.903Z,11.00
2019-04-21T22:18:31.812Z,10.50
2019-04-21T22:21:36.359Z,8.03
2019-04-21T22:24:39.950Z,12.87
2019-04-21T22:27:30.716Z,10.10
2019-04-21T22:30:39.199Z,9.13
2019-04-21T22:33:48.383Z,9.80
2019-04-21T22:36:56.303Z,8.23
2019-04-21T22:40:04.470Z,9.47
2019-04-21T22:43:09.923Z,10.07
2019-04-21T22:46:03.413Z,11.47
2019-04-21T22:49:09.308Z,9.00
2019-04-21T22:52:25.821Z,8.13
2019-04-21T22:55:31.616Z,9.47
2019-04-21T22:58:37.376Z,11.47
2019-04-21T23:01:42.418Z,8.03
2019-04-21T23:04:50.575Z,8.13
2019-04-21T23:07:58.096Z,8.33
2019-04-21T23:11:01.428Z,9.30
2019-04-21T23:14:05.102Z,9.33
2019-04-21T23:17:29.851Z,9.93
2019-04-21T23:20:34.583Z,9.97
2019-04-21T23:23:39.801Z,12.63
2019-04-21T23:26:40.743Z,8.43
2019-04-21T23:32:47.852Z,11.33
2019-04-21T23:35:45.707Z,10.20
2019-04-21T23:38:49.817Z,10.47
2019-04-21T23:41:55.418Z,9.53
2019-04-21T23:45:01.348Z,10.73
2019-04-21T23:48:18.592Z,8.03
2019-04-21T23:51:23.283Z,10.10
2019-04-21T23:54:15.645Z,6.97
2019-04-21T23:57:29.846Z,9.47
